createdAt,value
2023-01-03T00:04:55.157Z,0.82
2023-01-03T00:10:11.047Z,0.98
2023-01-03T00:15:15.814Z,0.88
2023-01-03T00:20:17.430Z,0.65
2023-01-03T00:25:20.712Z,0.80
2023-01-03T00:30:23.891Z,0.60
2023-01-03T00:35:26.539Z,0.50
2023-01-03T00:40:28.666Z,0.75
2023-01-03T00:45:35.489Z,0.73
2023-01-03T00:50:38.017Z,0.80
2023-01-03T00:55:43.553Z,0.80
2023-01-03T01:00:45.074Z,0.85
2023-01-03T01:05:49.883Z,3.60
2023-01-03T01:11:03.287Z,2.22
2023-01-03T01:16:26.609Z,1.90
2023-01-03T01:21:30.663Z,1.23
2023-01-03T01:26:38.922Z,0.80
2023-01-03T01:31:45.103Z,0.90
2023-01-03T01:36:50.039Z,0.75
2023-01-03T01:42:20.179Z,0.90
2023-01-03T01:52:29.922Z,0.95
2023-01-03T01:57:31.647Z,0.80
2023-01-03T02:02:34.574Z,0.80
2023-01-03T02:07:38.152Z,0.80
2023-01-03T02:13:05.690Z,1.02
2023-01-03T02:18:25.428Z,0.63
2023-01-03T02:23:51.127Z,1.00
2023-01-03T02:29:03.516Z,0.80
2023-01-03T02:34:25.300Z,0.75
2023-01-03T02:40:05.256Z,0.93
2023-01-03T02:45:48.962Z,0.90
2023-01-03T02:50:57.974Z,1.00
2023-01-03T02:56:12.513Z,1.10
2023-01-03T03:01:17.858Z,0.95
2023-01-03T03:06:34.688Z,1.00
2023-01-03T03:11:58.147Z,1.00
2023-01-03T03:17:06.133Z,1.08
2023-01-03T03:22:36.172Z,1.00
2023-01-03T03:28:03.146Z,0.95
2023-01-03T03:33:07.340Z,1.00
2023-01-03T03:38:16.482Z,1.00
2023-01-03T03:43:52.115Z,1.15
2023-01-03T03:49:27.199Z,0.90
2023-01-03T03:54:34.887Z,0.70
2023-01-03T03:59:38.251Z,1.00
2023-01-03T04:04:46.382Z,0.93
2023-01-03T04:09:48.056Z,0.85
2023-01-03T04:14:54.705Z,1.00
2023-01-03T04:20:01.586Z,1.00
2023-01-03T04:25:07.006Z,1.10
2023-01-03T04:30:09.091Z,1.13
2023-01-03T04:35:11.759Z,0.80
2023-01-03T04:40:13.322Z,1.02
2023-01-03T04:45:17.967Z,1.10
2023-01-03T04:50:22.064Z,1.08
2023-01-03T04:55:27.888Z,0.88
2023-01-03T05:00:34.263Z,0.95
2023-01-03T05:05:42.311Z,1.25
2023-01-03T05:10:43.818Z,1.00
2023-01-03T05:15:45.693Z,1.30
2023-01-03T05:21:05.895Z,1.13
2023-01-03T05:26:21.694Z,1.10
2023-01-03T05:31:23.258Z,1.13
2023-01-03T05:36:27.124Z,1.30
2023-01-03T05:41:47.234Z,1.60
2023-01-03T05:46:49.127Z,1.83
2023-01-03T05:51:54.811Z,1.60
2023-01-03T05:56:58.740Z,1.88
2023-01-03T06:02:00.494Z,1.70
2023-01-03T06:07:04.448Z,1.70
2023-01-03T06:12:06.167Z,1.92
2023-01-03T06:17:26.506Z,1.70
2023-01-03T06:22:28.438Z,1.63
2023-01-03T06:27:37.345Z,2.00
2023-01-03T06:32:38.906Z,2.70
2023-01-03T06:37:42.952Z,1.90
2023-01-03T06:42:44.462Z,3.42
2023-01-03T06:48:07.257Z,5.35
2023-01-03T06:53:15.814Z,2.40
2023-01-03T06:58:21.716Z,1.80
2023-01-03T07:03:24.192Z,4.00
2023-01-03T07:08:30.806Z,1.92
2023-01-03T07:13:51.010Z,2.08
2023-01-03T07:18:55.283Z,2.05
2023-01-03T07:24:01.623Z,2.20
2023-01-03T07:29:07.865Z,2.10
2023-01-03T07:34:09.820Z,2.35
2023-01-03T07:39:11.386Z,2.35
2023-01-03T07:44:12.881Z,2.38
2023-01-03T07:49:16.754Z,2.70
2023-01-03T07:54:18.392Z,2.67
2023-01-03T07:59:22.712Z,2.97
2023-01-03T08:04:29.028Z,2.45
2023-01-03T08:09:49.246Z,2.30
2023-01-03T08:14:50.759Z,2.50
2023-01-03T08:19:53.021Z,2.47
2023-01-03T08:25:04.564Z,2.50
2023-01-03T08:30:13.399Z,2.30
2023-01-03T08:35:16.124Z,2.95
2023-01-03T08:40:22.804Z,2.00
2023-01-03T08:45:27.899Z,2.40
2023-01-03T08:50:30.580Z,2.40
2023-01-03T08:55:34.204Z,2.40
2023-01-03T09:00:39.730Z,2.60
2023-01-03T09:05:41.332Z,2.92
2023-01-03T09:10:47.544Z,3.10
2023-01-03T09:15:51.746Z,2.83
2023-01-03T09:20:56.023Z,3.05
2023-01-03T09:25:57.995Z,3.13
2023-01-03T09:30:59.656Z,4.85
2023-01-03T09:36:05.809Z,4.30
2023-01-03T09:41:27.385Z,4.45
2023-01-03T09:46:30.946Z,4.18
2023-01-03T09:51:56.343Z,4.25
2023-01-03T09:57:16.607Z,4.22
2023-01-03T10:02:46.049Z,4.70
2023-01-03T10:08:07.628Z,4.28
2023-01-03T10:13:44.823Z,4.43
2023-01-03T10:19:22.487Z,4.35
2023-01-03T10:24:31.117Z,4.10
2023-01-03T10:29:38.268Z,4.25
2023-01-03T10:34:40.103Z,3.78
2023-01-03T10:39:41.673Z,4.05
2023-01-03T10:44:59.469Z,3.80
2023-01-03T10:50:03.330Z,3.90
2023-01-03T10:55:16.884Z,3.72
2023-01-03T11:00:33.901Z,3.50
2023-01-03T11:05:36.746Z,3.10
2023-01-03T11:10:59.378Z,2.92
2023-01-03T11:16:12.430Z,2.70
2023-01-03T11:21:53.715Z,2.97
2023-01-03T11:27:13.299Z,3.45
2023-01-03T11:32:26.279Z,3.22
2023-01-03T11:37:45.324Z,2.80
2023-01-03T11:42:58.867Z,2.90
2023-01-03T11:48:23.298Z,3.10
2023-01-03T11:53:31.062Z,2.77
2023-01-03T11:58:51.415Z,3.05
2023-01-03T12:04:04.201Z,2.38
2023-01-03T12:09:36.124Z,2.80
2023-01-03T12:15:00.697Z,2.60
2023-01-03T12:20:19.477Z,2.67
2023-01-03T12:25:31.913Z,2.58
2023-01-03T12:30:45.364Z,2.55
2023-01-03T12:36:21.005Z,2.60
2023-01-03T12:41:30.419Z,2.53
2023-01-03T12:46:42.512Z,2.53
2023-01-03T12:51:46.514Z,3.05
2023-01-03T12:56:59.128Z,2.08
2023-01-03T13:02:17.633Z,2.70
2023-01-03T13:07:28.262Z,1.90
2023-01-03T13:12:32.462Z,1.77
2023-01-03T13:17:48.741Z,1.48
2023-01-03T13:22:57.660Z,1.55
2023-01-03T13:28:19.821Z,1.70
2023-01-03T13:33:21.418Z,1.75
2023-01-03T13:38:30.271Z,2.10
2023-01-03T13:43:39.799Z,1.77
2023-01-03T13:48:55.706Z,1.90
2023-01-03T13:54:11.934Z,1.98
2023-01-03T13:59:34.267Z,2.15
2023-01-03T14:04:50.933Z,2.03
2023-01-03T14:10:05.551Z,2.33
2023-01-03T14:15:27.176Z,2.00
2023-01-03T14:20:35.533Z,2.40
2023-01-03T14:25:47.247Z,2.22
2023-01-03T14:30:58.041Z,2.00
2023-01-03T14:36:06.590Z,2.63
2023-01-03T14:41:28.093Z,2.38
2023-01-03T14:46:31.423Z,2.38
2023-01-03T14:51:37.331Z,9.07
2023-01-03T14:56:45.057Z,2.33
2023-01-03T15:01:47.476Z,2.40
2023-01-03T15:07:09.322Z,2.20
2023-01-03T15:12:13.897Z,1.77
2023-01-03T15:17:19.467Z,1.98
2023-01-03T15:22:26.438Z,1.85
2023-01-03T15:27:37.218Z,2.55
2023-01-03T15:32:57.775Z,3.58
2023-01-03T15:38:01.487Z,3.70
2023-01-03T15:43:24.321Z,3.42
2023-01-03T15:48:26.310Z,2.63
2023-01-03T15:53:30.800Z,3.00
2023-01-03T15:58:35.326Z,3.63
2023-01-03T16:03:37.045Z,3.72
2023-01-03T16:08:44.182Z,3.78
2023-01-03T16:13:57.095Z,5.15
2023-01-03T16:19:16.914Z,4.25
2023-01-03T16:24:24.633Z,3.30
2023-01-03T16:29:28.680Z,3.42
2023-01-03T16:34:33.968Z,3.17
2023-01-03T16:39:47.422Z,3.57
2023-01-03T16:44:49.681Z,4.18
2023-01-03T16:50:08.028Z,4.82
2023-01-03T17:00:26.979Z,5.70
2023-01-03T17:05:34.938Z,4.10
2023-01-03T17:10:39.925Z,4.97
2023-01-03T17:15:41.732Z,5.40
2023-01-03T17:20:50.709Z,7.70
2023-01-03T17:25:52.309Z,5.20
2023-01-03T17:30:57.541Z,5.03
2023-01-03T17:35:59.144Z,5.45
2023-01-03T17:41:00.871Z,6.13
2023-01-03T17:46:34.733Z,7.25
2023-01-03T17:51:36.529Z,7.13
2023-01-03T17:56:44.204Z,7.88
2023-01-03T18:01:46.384Z,8.80
2023-01-03T18:06:54.826Z,8.45
2023-01-03T18:17:02.463Z,8.70
2023-01-03T18:22:04.008Z,9.38
2023-01-03T18:27:09.585Z,9.55
2023-01-03T18:32:26.433Z,9.02
2023-01-03T18:37:34.084Z,8.38
2023-01-03T18:42:54.517Z,6.40
2023-01-03T18:47:56.083Z,6.00
2023-01-03T18:53:03.442Z,6.35
2023-01-03T18:58:14.508Z,6.40
2023-01-03T19:03:27.663Z,7.05
2023-01-03T19:08:33.909Z,6.22
2023-01-03T19:13:52.946Z,5.47
2023-01-03T19:18:54.970Z,6.75
2023-01-03T19:24:05.985Z,7.70
2023-01-03T19:29:20.360Z,9.13
2023-01-03T19:34:27.073Z,8.07
2023-01-03T19:39:37.131Z,8.23
2023-01-03T19:44:42.368Z,8.02
2023-01-03T19:49:50.249Z,7.88
2023-01-03T19:54:56.252Z,8.18
2023-01-03T20:00:01.924Z,7.68
2023-01-03T20:05:17.957Z,8.32
2023-01-03T20:10:23.179Z,7.85
2023-01-03T20:15:28.034Z,8.00
2023-01-03T20:20:33.236Z,8.68
2023-01-03T20:25:38.681Z,9.00
2023-01-03T20:30:40.320Z,9.90
2023-01-03T20:41:06.264Z,10.70
2023-01-03T20:46:20.539Z,12.68
2023-01-03T20:51:26.807Z,11.90
2023-01-03T20:56:35.711Z,13.82
2023-01-03T21:01:37.423Z,14.35
2023-01-03T21:06:45.549Z,11.63
2023-01-03T21:11:47.293Z,14.15
2023-01-03T21:16:51.975Z,18.63
2023-01-03T21:21:59.452Z,13.30
2023-01-03T21:27:03.439Z,21.97
2023-01-03T21:32:07.709Z,20.05
2023-01-03T21:37:11.048Z,12.65
2023-01-03T21:42:32.551Z,14.77
2023-01-03T21:47:41.562Z,13.38
2023-01-03T21:52:50.543Z,14.30
2023-01-03T21:57:52.415Z,15.73
2023-01-03T22:03:12.738Z,14.35
2023-01-03T22:08:16.883Z,13.65
2023-01-03T22:13:18.429Z,10.85
2023-01-03T22:18:21.444Z,10.98
2023-01-03T22:23:26.009Z,12.57
2023-01-03T22:28:27.617Z,11.43
2023-01-03T22:33:29.171Z,12.30
2023-01-03T22:38:38.153Z,14.07
2023-01-03T22:43:43.475Z,13.32
2023-01-03T22:48:47.365Z,14.48
2023-01-03T22:53:53.023Z,14.88
2023-01-03T22:58:56.203Z,14.05
2023-01-03T23:04:03.153Z,17.92
2023-01-03T23:09:05.567Z,17.80
2023-01-03T23:14:18.570Z,16.40
2023-01-03T23:19:23.039Z,14.98
2023-01-03T23:24:25.315Z,14.00
2023-01-03T23:29:29.382Z,12.05
2023-01-03T23:34:33.233Z,12.27
2023-01-03T23:39:35.291Z,14.55
2023-01-03T23:44:36.862Z,11.60
2023-01-03T23:49:40.959Z,11.57
2023-01-03T23:54:43.062Z,10.60
2023-01-03T23:59:47.001Z,9.40
